Time;durP1;ratioP1;P1;durP2;ratioP2;P2;SDS_P1;SDS_P2;PMS_P1;PMS_P2;Temp;Humidity;BMP_temperature;BMP_pressure;BME280_temperature;BME280_humidity;BME280_pressure;Samples;Min_cycle;Max_cycle;Signal;HPM_P1;HPM_P2
2024/01/08 00:01:17;;;;;;;0.83;0.83;;;;;;;9.25;100.00;3913.47;5094450;28;20176;-59
2024/01/08 00:03:44;;;;;;;1.33;1.20;;;;;;;8.97;100.00;3591.25;5094574;28;20211;-60
2024/01/08 00:06:12;;;;;;;2.23;1.60;;;;;;;8.91;100.00;3590.53;5094316;28;20237;-60
2024/01/08 00:08:40;;;;;;;1.40;1.40;;;;;;;8.94;100.00;3909.91;5094360;28;20191;-60
2024/01/08 00:11:06;;;;;;;1.50;1.40;;;;;;;8.78;100.00;5503.34;5094581;28;20613;-60
2024/01/08 00:13:34;;;;;;;1.87;1.77;;;;;;;8.69;100.00;6459.63;5094218;28;20234;-61
2024/01/08 00:16:01;;;;;;;1.70;1.70;;;;;;;8.58;100.00;5819.69;5094459;28;20604;-60
2024/01/08 00:18:29;;;;;;;2.37;2.27;;;;;;;8.33;100.00;6134.97;5094498;28;20238;-59
2024/01/08 00:20:58;;;;;;;2.40;2.30;;;;;;;8.49;100.00;6775.56;5094399;28;20652;-60
2024/01/08 00:23:27;;;;;;;2.50;2.40;;;;;;;8.38;100.00;8688.56;5093867;28;20208;-60
2024/01/08 00:25:54;;;;;;;2.80;2.70;;;;;;;8.24;100.00;9324.44;5094604;28;20192;-59
2024/01/08 00:28:21;;;;;;;2.70;2.50;;;;;;;8.33;100.00;8049.31;5094164;28;20225;-60
2024/01/08 00:30:48;;;;;;;2.63;2.53;;;;;;;8.37;100.00;8050.06;5094143;28;20642;-59
2024/01/08 00:33:16;;;;;;;2.80;2.60;;;;;;;8.30;100.00;11561.13;5093768;28;20231;-60
2024/01/08 00:35:43;;;;;;;2.80;2.70;;;;;;;8.12;100.00;15711.31;5093704;28;20188;-60
2024/01/08 00:38:10;;;;;;;2.80;2.70;;;;;;;8.06;100.00;16893.75;5093688;28;20184;-60
2024/01/08 00:40:38;;;;;;;3.00;2.90;;;;;;;8.04;100.00;15389.28;5093925;28;20208;-60
2024/01/08 00:43:05;;;;;;;3.00;2.90;;;;;;;7.92;100.00;16794.25;5094027;28;20654;-60
2024/01/08 00:45:33;;;;;;;2.97;2.80;;;;;;;7.93;100.00;15847.84;5093868;28;20621;-60
2024/01/08 00:48:00;;;;;;;2.97;2.83;;;;;;;7.85;100.00;16941.84;5093964;28;20184;-60
2024/01/08 00:50:27;;;;;;;3.03;2.93;;;;;;;7.65;100.00;17984.63;5093421;28;20185;-60
2024/01/08 00:52:54;;;;;;;2.90;2.70;;;;;;;7.48;100.00;20227.22;5093583;28;20203;-60
2024/01/08 00:55:21;;;;;;;2.73;2.63;;;;;;;7.30;100.00;20310.25;5093209;28;20228;-60
2024/01/08 00:57:50;;;;;;;2.70;2.60;;;;;;;7.16;100.00;20367.53;5093435;28;20313;-59
2024/01/08 01:00:17;;;;;;;2.77;2.67;;;;;;;7.04;100.00;18203.16;5093299;28;20188;-61
2024/01/08 01:02:44;;;;;;;2.67;2.47;;;;;;;7.16;100.00;15737.09;5092857;28;20724;-59
2024/01/08 01:05:11;;;;;;;2.83;2.73;;;;;;;7.05;100.00;16367.22;5093530;28;20208;-60
2024/01/08 01:07:38;;;;;;;2.90;2.80;;;;;;;6.93;100.00;15994.31;5093476;28;20192;-61
2024/01/08 01:10:06;;;;;;;2.40;2.30;;;;;;;6.95;100.00;15994.78;5093478;28;20627;-59
2024/01/08 01:12:34;;;;;;;2.50;2.40;;;;;;;7.18;100.00;16181.59;5093050;28;20242;-59
2024/01/08 01:15:02;;;;;;;2.30;2.20;;;;;;;7.19;100.00;18560.41;5092984;28;20176;-60
2024/01/08 01:17:29;;;;;;;2.20;2.10;;;;;;;7.19;100.00;20156.16;5092959;28;20188;-59
2024/01/08 01:19:56;;;;;;;2.63;2.53;;;;;;;7.21;100.00;21236.22;5092908;28;20188;-59
2024/01/08 01:22:23;;;;;;;2.17;2.07;;;;;;;7.19;100.00;21200.44;5093176;28;20550;-59
2024/01/08 01:24:50;;;;;;;1.93;1.93;;;;;;;7.24;100.00;17973.13;5093130;28;20689;-58
2024/01/08 01:27:17;;;;;;;2.30;2.20;;;;;;;7.10;100.00;17808.56;5093286;28;20196;-60
2024/01/08 01:29:44;;;;;;;1.90;1.80;;;;;;;7.00;100.00;15677.13;5092984;28;20184;-60
2024/01/08 01:32:13;;;;;;;1.63;1.63;;;;;;;7.05;100.00;14402.00;5093019;28;20620;-58
2024/01/08 01:34:40;;;;;;;1.97;1.87;;;;;;;7.03;100.00;13125.31;5093026;28;20601;-59
2024/01/08 01:37:07;;;;;;;1.80;1.70;;;;;;;6.79;100.00;11843.94;5092571;28;20242;-59
2024/01/08 01:39:34;;;;;;;1.30;1.30;;;;;;;6.81;100.00;9932.69;5092815;28;20237;-59
2024/01/08 01:42:01;;;;;;;2.10;1.93;;;;;;;6.83;100.00;8977.56;5092492;28;20245;-59
2024/01/08 01:44:27;;;;;;;1.63;1.63;;;;;;;6.86;100.00;8341.28;5092747;28;20200;-59
2024/01/08 01:46:56;;;;;;;1.80;1.70;;;;;;;6.77;100.00;9294.84;5092683;28;20207;-60
2024/01/08 01:49:25;;;;;;;1.37;1.37;;;;;;;6.77;100.00;8021.13;5092711;28;20188;-60
2024/01/08 01:51:53;;;;;;;1.20;1.20;;;;;;;6.80;100.00;8658.56;5092924;28;20686;-59
2024/01/08 01:54:22;;;;;;;1.70;1.60;;;;;;;6.82;100.00;8977.28;5092544;28;20675;-61
2024/01/08 01:56:52;;;;;;;2.73;1.30;;;;;;;6.82;100.00;8658.84;5092480;28;20183;-59
2024/01/08 01:59:20;;;;;;;1.60;1.60;;;;;;;6.73;100.00;7702.19;5092205;28;20366;-62
2024/01/08 02:01:48;;;;;;;1.30;1.30;;;;;;;6.94;100.00;6114.13;5092202;28;20176;-60
2024/01/08 02:04:17;;;;;;;2.30;1.17;;;;;;;7.04;100.00;4842.75;5092403;28;20261;-59
2024/01/08 02:06:46;;;;;;;1.80;1.47;;;;;;;7.11;100.00;5480.06;5092091;28;20237;-60
2024/01/08 02:09:15;;;;;;;1.40;1.40;;;;;;;7.06;100.00;7389.41;5092125;28;20241;-59
2024/01/08 02:11:42;;;;;;;1.10;1.10;;;;;;;6.99;100.00;7069.81;5092092;28;20214;-59
2024/01/08 02:14:10;;;;;;;1.43;1.40;;;;;;;7.12;100.00;6753.56;5091468;28;20246;-58
2024/01/08 02:16:37;;;;;;;2.63;1.30;;;;;;;7.14;100.00;8027.88;5092296;28;20191;-59
2024/01/08 02:19:04;;;;;;;2.50;1.43;;;;;;;7.22;100.00;8029.22;5092627;28;20210;-60
2024/01/08 02:21:31;;;;;;;1.20;1.20;;;;;;;7.23;100.00;8029.50;5092347;28;20187;-60
2024/01/08 02:24:00;;;;;;;1.30;1.30;;;;;;;7.25;100.00;9304.50;5091904;28;20221;-60
2024/01/08 02:26:28;;;;;;;1.00;1.00;;;;;;;7.30;100.00;9942.94;5092264;28;20222;-61
2024/01/08 02:28:55;;;;;;;1.00;1.00;;;;;;;7.29;100.00;12494.09;5092181;28;20237;-59
2024/01/08 02:31:22;;;;;;;1.60;1.50;;;;;;;7.22;100.00;15684.06;5091792;28;20195;-58
2024/01/08 02:33:49;;;;;;;1.13;1.13;;;;;;;7.28;100.00;17602.38;5092001;28;20669;-59
2024/01/08 02:36:16;;;;;;;1.13;1.13;;;;;;;7.42;100.00;19205.34;5091639;28;20188;-59
2024/01/08 02:38:43;;;;;;;1.40;1.30;;;;;;;7.22;100.00;22396.50;5092207;28;20604;-59
2024/01/08 02:41:12;;;;;;;1.13;1.13;;;;;;;7.15;100.00;23993.59;5091967;28;20180;-59
2024/01/08 02:43:39;;;;;;;2.40;1.00;;;;;;;7.04;100.00;24628.56;5092708;28;20243;-60
2024/01/08 02:46:06;;;;;;;0.83;0.83;;;;;;;6.86;100.00;25901.06;5092037;28;20204;-60
2024/01/08 02:48:33;;;;;;;1.00;1.00;;;;;;;6.93;100.00;24303.78;5091708;28;20257;-59
2024/01/08 02:51:00;;;;;;;1.17;1.17;;;;;;;6.89;100.00;25582.13;5091920;28;20188;-59
2024/01/08 02:53:27;;;;;;;1.20;1.20;;;;;;;6.87;100.00;26541.81;5091652;28;20188;-60
2024/01/08 02:55:53;;;;;;;2.30;1.20;;;;;;;6.82;100.00;21101.00;5091847;28;20237;-59
2024/01/08 02:58:21;;;;;;;1.10;1.10;;;;;;;6.87;100.00;21742.56;5091663;28;20605;-59
2024/01/08 03:00:49;;;;;;;1.20;1.20;;;;;;;6.78;100.00;23017.84;5091952;28;20568;-59
2024/01/08 03:03:16;;;;;;;1.20;1.20;;;;;;;6.91;100.00;23982.91;5091973;28;20611;-60
2024/01/08 03:05:43;;;;;;;1.30;1.20;;;;;;;6.87;100.00;25901.28;5091722;28;20570;-59
2024/01/08 03:08:10;;;;;;;1.37;1.37;;;;;;;6.86;100.00;28142.59;5091835;28;20184;-60
2024/01/08 03:10:37;;;;;;;1.57;1.57;;;;;;;6.54;100.00;28766.31;5091558;28;20184;-59
2024/01/08 03:13:04;;;;;;;1.60;1.60;;;;;;;6.26;100.00;28751.91;5091708;28;20199;-59
2024/01/08 03:15:33;;;;;;;1.50;1.50;;;;;;;5.87;100.00;24895.53;5091464;28;20180;-59
2024/01/08 03:18:00;;;;;;;1.40;1.40;;;;;;;6.18;100.00;22353.22;5091666;28;20184;-60
2024/01/08 03:20:27;;;;;;;3.60;1.50;;;;;;;6.24;100.00;22355.94;5091332;28;20218;-60
2024/01/08 03:22:54;;;;;;;2.03;1.83;;;;;;;6.15;100.00;24588.78;5091951;28;20195;-59
2024/01/08 03:25:21;;;;;;;1.60;1.60;;;;;;;6.13;100.00;26186.06;5093821;28;20747;-59
2024/01/08 03:27:48;;;;;;;1.77;1.67;;;;;;;5.91;100.00;24577.88;5095153;28;20184;-61
2024/01/08 03:30:15;;;;;;;3.00;1.60;;;;;;;5.92;100.00;24897.84;5095297;28;20607;-60
2024/01/08 03:32:44;;;;;;;2.20;2.10;;;;;;;6.09;100.00;26503.88;5095078;28;20188;-60
2024/01/08 03:35:11;;;;;;;2.00;1.90;;;;;;;6.04;100.00;26821.22;5095747;28;20184;-61
2024/01/08 03:37:39;;;;;;;1.97;1.87;;;;;;;6.06;100.00;25223.66;5094799;28;20297;-59
2024/01/08 03:40:08;;;;;;;1.53;1.53;;;;;;;5.97;100.00;26178.84;5095257;28;20609;-61
2024/01/08 03:42:35;;;;;;;1.50;1.50;;;;;;;6.01;100.00;25221.34;5094964;28;20229;-59
2024/01/08 03:45:02;;;;;;;2.00;1.90;;;;;;;5.98;100.00;25539.78;5095025;28;20743;-60
2024/01/08 03:47:29;;;;;;;1.70;1.70;;;;;;;6.00;100.00;26499.75;5095560;28;20562;-61
2024/01/08 03:49:58;;;;;;;1.67;1.67;;;;;;;5.93;100.00;28095.19;5094712;28;20192;-59
2024/01/08 03:52:25;;;;;;;1.80;1.70;;;;;;;5.96;100.00;26178.38;5095031;28;20622;-59
2024/01/08 03:54:52;;;;;;;1.73;1.70;;;;;;;5.96;100.00;29696.66;5094484;28;20232;-58
2024/01/08 03:57:19;;;;;;;2.00;1.90;;;;;;;5.89;100.00;30973.03;5094513;28;20180;-59
2024/01/08 03:59:47;;;;;;;1.90;1.90;;;;;;;6.02;100.00;30979.75;5094763;28;20188;-59
2024/01/08 04:02:14;;;;;;;1.93;1.93;;;;;;;5.92;100.00;32575.69;5094531;28;20188;-59
2024/01/08 04:04:43;;;;;;;2.23;2.13;;;;;;;5.94;100.00;34499.06;5094218;28;20250;-59
2024/01/08 04:07:12;;;;;;;2.40;2.30;;;;;;;5.65;100.00;39288.88;5094905;28;20583;-61
2024/01/08 04:09:40;;;;;;;2.77;2.67;;;;;;;5.92;100.00;41234.09;5094685;28;20181;-60
2024/01/08 04:12:08;;;;;;;2.27;2.00;;;;;;;5.90;100.00;41232.25;5094755;28;20184;-60
2024/01/08 04:14:35;;;;;;;2.33;2.23;;;;;;;5.96;100.00;43485.59;5094304;28;20271;-59
2024/01/08 04:17:02;;;;;;;2.90;2.80;;;;;;;5.77;100.00;45719.97;5094439;28;20196;-60
2024/01/08 04:19:29;;;;;;;3.47;2.07;;;;;;;5.87;100.00;47335.88;5094128;28;20222;-59
2024/01/08 04:21:57;;;;;;;2.73;2.63;;;;;;;5.86;100.00;45405.72;5094222;28;20188;-60
2024/01/08 04:24:25;;;;;;;2.83;2.73;;;;;;;5.79;100.00;44436.41;5094283;28;20614;-60
2024/01/08 04:26:52;;;;;;;2.90;2.80;;;;;;;5.75;100.00;41221.69;5094504;28;20200;-59
2024/01/08 04:29:19;;;;;;;3.03;2.77;;;;;;;5.68;100.00;44749.09;5093896;28;20237;-61
2024/01/08 04:31:46;;;;;;;2.83;2.73;;;;;;;5.52;100.00;46985.75;5094738;28;20652;-59
2024/01/08 04:34:13;;;;;;;2.80;2.70;;;;;;;5.62;100.00;45708.31;5093730;28;20234;-60
2024/01/08 04:36:42;;;;;;;3.17;3.07;;;;;;;5.53;100.00;45701.06;5093467;28;20195;-58
2024/01/08 04:39:10;;;;;;;2.67;2.57;;;;;;;5.45;100.00;43446.84;5094082;28;20219;-61
2024/01/08 04:41:38;;;;;;;2.97;2.83;;;;;;;5.50;100.00;42487.19;5094096;28;20215;-59
2024/01/08 04:44:06;;;;;;;3.87;3.67;;;;;;;5.04;100.00;45020.44;5093848;28;20189;-60
2024/01/08 04:46:33;;;;;;;3.57;3.40;;;;;;;5.31;100.00;36381.44;5093804;28;20692;-59
2024/01/08 04:49:00;;;;;;;3.43;3.33;;;;;;;5.20;100.00;26780.44;5093493;28;20184;-59
2024/01/08 04:51:27;;;;;;;3.50;3.40;;;;;;;5.09;100.00;24860.16;5093645;28;20189;-61
2024/01/08 04:53:54;;;;;;;4.13;3.93;;;;;;;4.87;100.00;25807.16;5093361;28;20300;-60
2024/01/08 04:56:23;;;;;;;4.17;3.87;;;;;;;4.68;100.00;19743.34;5093350;28;20241;-59
2024/01/08 04:58:52;;;;;;;4.30;4.00;;;;;;;4.25;100.00;18455.00;5093522;28;20184;-62
2024/01/08 05:01:19;;;;;;;4.10;3.90;;;;;;;4.15;100.00;14637.69;5093251;28;20192;-59
2024/01/08 05:03:46;;;;;;;4.60;4.30;;;;;;;3.82;100.00;14310.69;5093423;28;20185;-60
2024/01/08 05:06:14;;;;;;;4.27;4.07;;;;;;;4.00;100.00;17492.72;5092959;28;20249;-61
2024/01/08 05:08:41;;;;;;;4.57;4.37;;;;;;;3.84;100.00;22938.16;5093279;28;20188;-60
2024/01/08 05:11:08;;;;;;;4.30;4.10;;;;;;;3.65;100.00;25630.59;5093340;28;20688;-60
2024/01/08 05:13:36;;;;;;;4.20;3.90;;;;;;;3.78;100.00;28200.59;5092942;28;20187;-61
2024/01/08 05:16:04;;;;;;;5.10;4.80;;;;;;;3.62;100.00;32514.47;5093078;28;20184;-60
2024/01/08 05:18:31;;;;;;;4.80;4.60;;;;;;;3.61;100.00;34286.94;5092847;28;20191;-61
2024/01/08 05:20:59;;;;;;;5.47;5.07;;;;;;;3.59;100.00;34938.88;5093267;28;20589;-60
2024/01/08 05:23:26;;;;;;;5.73;5.43;;;;;;;3.56;100.00;37676.84;5092837;28;20183;-61
2024/01/08 05:25:53;;;;;;;4.47;4.27;;;;;;;3.54;100.00;39933.22;5093198;28;20195;-60
2024/01/08 05:28:20;;;;;;;4.80;4.60;;;;;;;3.44;100.00;41697.34;5092919;28;20635;-61
2024/01/08 05:30:47;;;;;;;4.90;4.70;;;;;;;3.29;100.00;44492.94;5092820;28;20249;-61
2024/01/08 05:33:15;;;;;;;5.13;4.87;;;;;;;3.13;100.00;44580.38;5092660;28;20187;-62
2024/01/08 05:35:42;;;;;;;5.30;5.10;;;;;;;3.33;100.00;44771.13;5092511;28;20200;-61
2024/01/08 05:38:09;;;;;;;4.90;4.70;;;;;;;3.25;100.00;46535.13;5092460;28;20253;-61
2024/01/08 05:40:36;;;;;;;5.47;5.27;;;;;;;3.16;100.00;47751.94;5092740;28;20616;-61
2024/01/08 05:43:05;;;;;;;5.73;5.43;;;;;;;3.25;100.00;47851.22;5092376;28;20194;-61
2024/01/08 05:45:32;;;;;;;6.30;5.73;;;;;;;3.11;100.00;48958.91;5092878;28;20619;-61
2024/01/08 05:47:59;;;;;;;5.73;5.50;;;;;;;3.08;100.00;50610.63;5092136;28;20180;-62
2024/01/08 05:50:28;;;;;;;5.53;5.23;;;;;;;3.03;100.00;50270.72;5092648;28;20696;-63
2024/01/08 05:52:56;;;;;;;6.27;5.87;;;;;;;3.04;100.00;49695.81;5092565;28;20188;-63
2024/01/08 05:55:23;;;;;;;6.20;5.90;;;;;;;3.01;100.00;49723.66;5092268;28;20523;-62
2024/01/08 05:57:50;;;;;;;5.93;5.63;;;;;;;3.26;100.00;49426.63;5092678;28;20187;-61
2024/01/08 06:00:18;;;;;;;7.57;7.17;;;;;;;3.23;100.00;48315.91;5092466;28;20646;-62
2024/01/08 06:02:45;;;;;;;5.30;5.00;;;;;;;3.14;100.00;50240.78;5092565;28;20196;-62
2024/01/08 06:05:11;;;;;;;5.43;5.23;;;;;;;3.19;100.00;51079.19;5092889;28;20245;-63
2024/01/08 06:07:40;;;;;;;6.00;5.60;;;;;;;3.22;100.00;50778.34;5093209;28;20187;-60
2024/01/08 06:10:08;;;;;;;5.17;4.87;;;;;;;3.10;100.00;52992.56;5092290;28;20188;-58
2024/01/08 06:12:35;;;;;;;6.60;6.30;;;;;;;3.03;100.00;53848.09;5091943;28;20183;-57
2024/01/08 06:15:02;;;;;;;6.47;6.17;;;;;;;3.10;100.00;50942.94;5091990;28;20188;-57
2024/01/08 06:17:29;;;;;;;5.83;5.53;;;;;;;3.01;100.00;50925.34;5092614;28;20588;-57
2024/01/08 06:19:56;;;;;;;6.40;6.10;;;;;;;2.95;100.00;53675.19;5092566;28;20217;-57
2024/01/08 06:22:23;;;;;;;6.47;6.17;;;;;;;2.96;100.00;53142.44;5091878;28;20694;-58
2024/01/08 06:24:52;;;;;;;5.93;5.63;;;;;;;2.95;100.00;53329.41;5092223;28;20249;-56
2024/01/08 06:27:19;;;;;;;5.97;5.60;;;;;;;2.95;100.00;49590.38;5092969;28;20205;-58
2024/01/08 06:29:46;;;;;;;6.20;5.90;;;;;;;2.97;100.00;48859.31;5092107;28;20237;-57
2024/01/08 06:32:13;;;;;;;6.10;5.80;;;;;;;3.00;100.00;48638.75;5092889;28;20180;-62
2024/01/08 06:34:42;;;;;;;7.10;6.77;;;;;;;3.10;100.00;48434.56;5094465;28;20184;-62
2024/01/08 06:37:09;;;;;;;6.57;6.07;;;;;;;3.04;100.00;50501.94;5092860;28;20271;-62
2024/01/08 06:39:38;;;;;;;6.60;6.20;;;;;;;2.98;100.00;50622.22;5092717;28;20227;-61
2024/01/08 06:42:06;;;;;;;6.20;5.90;;;;;;;2.87;100.00;53093.53;5092589;28;20649;-61
2024/01/08 06:44:34;;;;;;;7.97;7.50;;;;;;;2.92;100.00;50901.88;5092284;28;20192;-62
2024/01/08 06:47:01;;;;;;;7.50;7.00;;;;;;;2.88;100.00;51554.25;5092702;28;20257;-62
2024/01/08 06:49:28;;;;;;;6.97;6.53;;;;;;;2.75;100.00;52690.16;5094766;28;20184;-56
2024/01/08 06:51:55;;;;;;;8.03;7.43;;;;;;;2.57;100.00;51756.97;5092065;28;20195;-57
2024/01/08 06:54:22;;;;;;;8.57;8.07;;;;;;;2.59;100.00;51826.38;5092259;28;20605;-62
2024/01/08 06:56:49;;;;;;;8.23;7.70;;;;;;;2.62;100.00;50753.41;5092558;28;20203;-62
2024/01/08 06:59:18;;;;;;;6.57;6.27;;;;;;;2.64;100.00;52449.22;5093248;28;20192;-61
2024/01/08 07:01:47;;;;;;;7.80;7.40;;;;;;;2.76;100.00;50342.91;5095421;28;20206;-61
2024/01/08 07:04:14;;;;;;;8.30;7.83;;;;;;;2.76;100.00;50750.81;5095669;28;20184;-62
2024/01/08 07:06:41;;;;;;;9.40;6.50;;;;;;;2.52;100.00;51046.78;5095910;28;20616;-61
2024/01/08 07:09:08;;;;;;;6.30;6.00;;;;;;;2.50;100.00;54860.59;5095525;28;20611;-61
2024/01/08 07:11:36;;;;;;;6.33;6.03;;;;;;;2.51;100.00;54688.22;5095481;28;20195;-60
2024/01/08 07:14:03;;;;;;;6.63;6.33;;;;;;;2.53;100.00;53188.09;5095761;28;20200;-61
2024/01/08 07:16:32;;;;;;;7.03;6.73;;;;;;;2.52;100.00;52187.91;5095661;28;20227;-61
2024/01/08 07:18:59;;;;;;;5.83;5.43;;;;;;;2.52;100.00;49580.94;5095147;28;20184;-61
2024/01/08 07:21:27;;;;;;;6.33;6.00;;;;;;;2.48;100.00;48932.31;5095809;28;20180;-62
2024/01/08 07:23:55;;;;;;;6.70;6.40;;;;;;;2.56;100.00;47554.13;5095510;28;20195;-62
2024/01/08 07:26:23;;;;;;;7.20;6.80;;;;;;;2.57;100.00;50871.56;5095232;28;20240;-61
2024/01/08 07:28:50;;;;;;;6.67;6.23;;;;;;;2.51;100.00;52700.56;5095149;28;20192;-62
2024/01/08 07:31:17;;;;;;;6.37;5.90;;;;;;;2.45;100.00;52354.19;5095687;28;20192;-62
2024/01/08 07:33:46;;;;;;;6.47;6.17;;;;;;;2.40;100.00;52877.69;5095506;28;20176;-64
2024/01/08 07:36:14;;;;;;;6.90;6.60;;;;;;;2.40;100.00;51208.66;5095318;28;20257;-62
2024/01/08 07:38:41;;;;;;;6.63;6.33;;;;;;;2.53;100.00;48787.00;5095424;28;20197;-63
2024/01/08 07:41:08;;;;;;;6.47;6.17;;;;;;;2.13;100.00;48448.34;5095076;28;20184;-63
2024/01/08 07:43:37;;;;;;;6.07;5.77;;;;;;;2.53;100.00;50170.03;5094797;28;20267;-62
2024/01/08 07:46:04;;;;;;;6.63;6.10;;;;;;;2.40;100.00;51294.19;5094757;28;20192;-63
2024/01/08 07:48:31;;;;;;;5.80;5.50;;;;;;;2.43;100.00;49580.59;5096177;28;20184;-61
2024/01/08 07:51:00;;;;;;;5.17;4.97;;;;;;;2.35;100.00;50421.78;5095281;28;20241;-63
2024/01/08 07:53:28;;;;;;;5.67;5.37;;;;;;;2.14;100.00;49455.84;5094375;28;20196;-62
2024/01/08 07:55:55;;;;;;;7.37;6.00;;;;;;;2.27;100.00;46938.22;5095151;28;20238;-63
2024/01/08 07:58:22;;;;;;;7.20;6.80;;;;;;;2.20;100.00;44877.88;5094493;28;20234;-63
2024/01/08 08:00:49;;;;;;;6.07;5.63;;;;;;;2.24;100.00;45300.47;5094585;28;20218;-62
2024/01/08 08:03:16;;;;;;;5.67;5.23;;;;;;;2.10;100.00;46852.19;5094607;28;20188;-62
2024/01/08 08:05:44;;;;;;;5.90;5.60;;;;;;;2.13;100.00;46105.53;5094461;28;20180;-63
2024/01/08 08:08:12;;;;;;;5.70;5.40;;;;;;;2.27;100.00;44211.94;5095285;28;20192;-64
2024/01/08 08:10:39;;;;;;;4.70;4.50;;;;;;;2.07;100.00;46779.78;5093455;28;20195;-65
2024/01/08 08:13:06;;;;;;;5.47;5.23;;;;;;;2.03;100.00;48304.94;5095054;28;20603;-63
2024/01/08 08:15:33;;;;;;;5.70;5.40;;;;;;;1.96;100.00;47464.84;5095199;28;20196;-63
2024/01/08 08:18:00;;;;;;;5.80;5.50;;;;;;;2.05;100.00;45918.88;5094172;28;20244;-64
2024/01/08 08:20:27;;;;;;;7.30;6.93;;;;;;;2.10;100.00;45409.09;5094628;28;20249;-62
2024/01/08 08:22:54;;;;;;;7.17;6.77;;;;;;;2.21;100.00;43810.44;5094380;28;20230;-63
2024/01/08 08:25:23;;;;;;;7.10;6.60;;;;;;;2.20;100.00;44446.06;5094471;28;20196;-65
2024/01/08 08:27:50;;;;;;;6.40;6.10;;;;;;;2.02;100.00;46960.44;5094300;28;20187;-63
2024/01/08 08:30:19;;;;;;;7.13;6.83;;;;;;;2.12;100.00;48756.91;5093980;28;20192;-63
2024/01/08 08:32:46;;;;;;;6.97;6.67;;;;;;;2.10;100.00;46857.19;5094144;28;20180;-65
2024/01/08 08:35:13;;;;;;;8.47;7.90;;;;;;;2.09;100.00;45281.00;5093958;28;20653;-62
2024/01/08 08:37:40;;;;;;;7.97;7.47;;;;;;;2.05;100.00;44998.28;5094671;28;20200;-64
2024/01/08 08:40:11;;;;;;;6.20;5.67;;;;;;;2.02;100.00;44184.94;5093995;28;20653;-64
2024/01/08 08:42:41;;;;;;;7.17;6.77;;;;;;;1.97;100.00;43048.63;5093585;28;20180;-63
2024/01/08 08:45:09;;;;;;;6.60;6.30;;;;;;;1.86;100.00;41195.63;5093873;28;20185;-64
2024/01/08 08:47:36;;;;;;;7.33;6.83;;;;;;;1.90;100.00;38348.31;5094286;28;20180;-63
2024/01/08 08:50:03;;;;;;;7.23;6.73;;;;;;;1.85;100.00;38302.91;5093976;28;20188;-65
2024/01/08 08:52:31;;;;;;;6.63;6.13;;;;;;;1.75;100.00;39362.09;5093607;28;20267;-64
2024/01/08 08:54:58;;;;;;;5.53;5.23;;;;;;;1.59;100.00;39253.81;5093328;28;20215;-63
2024/01/08 08:57:25;;;;;;;8.60;6.53;;;;;;;1.55;100.00;37406.56;5093306;28;20328;-64
2024/01/08 08:59:53;;;;;;;6.43;5.93;;;;;;;1.63;100.00;33858.00;5093300;28;20190;-63
2024/01/08 09:02:20;;;;;;;7.40;6.97;;;;;;;1.72;100.00;31346.06;5093476;28;20196;-63
2024/01/08 09:04:49;;;;;;;7.40;7.00;;;;;;;1.76;100.00;32792.03;5093524;28;20183;-65
2024/01/08 09:07:16;;;;;;;8.40;7.80;;;;;;;1.78;100.00;35065.75;5093480;28;20635;-64
2024/01/08 09:09:43;;;;;;;6.50;6.20;;;;;;;1.98;100.00;36098.22;5094112;28;20601;-64
2024/01/08 09:12:10;;;;;;;7.10;6.77;;;;;;;2.01;100.00;37733.59;5094320;28;20202;-63
2024/01/08 09:14:37;;;;;;;7.20;6.70;;;;;;;2.05;100.00;40130.28;5094202;28;20188;-63
2024/01/08 09:17:06;;;;;;;8.10;7.60;;;;;;;2.13;100.00;39814.13;5094392;28;20222;-63
2024/01/08 09:19:33;;;;;;;6.97;6.47;;;;;;;2.00;100.00;42036.00;5094336;28;20229;-63
2024/01/08 09:22:00;;;;;;;7.77;7.30;;;;;;;1.80;100.00;41298.75;5094443;28;20191;-64
2024/01/08 09:24:27;;;;;;;7.97;7.53;;;;;;;1.53;100.00;41904.25;5094014;28;20613;-63
2024/01/08 09:26:55;;;;;;;7.57;7.17;;;;;;;1.87;100.00;37505.09;5093556;28;20192;-63
2024/01/08 09:29:22;;;;;;;7.30;6.53;;;;;;;1.64;100.00;37748.84;5093797;28;20226;-64
2024/01/08 09:31:49;;;;;;;6.63;6.23;;;;;;;2.06;100.00;33625.47;5093462;28;20195;-63
2024/01/08 09:34:17;;;;;;;7.93;7.33;;;;;;;1.98;100.00;31393.09;5093759;28;20245;-64
2024/01/08 09:36:45;;;;;;;7.70;7.30;;;;;;;1.94;100.00;32981.38;5093241;28;20265;-63
2024/01/08 09:39:12;;;;;;;6.90;6.60;;;;;;;1.80;100.00;32973.38;5093846;28;20241;-62
2024/01/08 09:41:39;;;;;;;6.97;6.57;;;;;;;1.64;100.00;32327.75;5093291;28;20565;-64
2024/01/08 09:44:07;;;;;;;8.10;7.70;;;;;;;1.66;100.00;34874.19;5093220;28;20213;-64
2024/01/08 09:46:42;;;;;;;7.93;7.50;;;;;;;1.64;100.00;33600.09;5093662;28;20237;-63
2024/01/08 09:49:14;;;;;;;7.67;7.27;;;;;;;1.64;100.00;31056.19;5093391;28;20184;-63
2024/01/08 09:51:44;;;;;;;6.77;6.47;;;;;;;1.65;100.00;32010.63;5093763;28;20196;-62
2024/01/08 09:54:11;;;;;;;7.20;6.70;;;;;;;1.65;100.00;32646.38;5094130;28;20300;-64
2024/01/08 09:56:38;;;;;;;6.50;6.20;;;;;;;1.59;100.00;32643.16;5093402;28;20224;-63
2024/01/08 09:59:06;;;;;;;6.40;6.00;;;;;;;1.30;100.00;33898.16;5093330;28;20198;-62
2024/01/08 10:01:33;;;;;;;6.03;5.63;;;;;;;1.51;100.00;33910.34;5093995;28;20187;-62
2024/01/08 10:04:01;;;;;;;6.80;6.50;;;;;;;1.52;100.00;32957.06;5093657;28;20597;-63
2024/01/08 10:06:28;;;;;;;6.30;6.00;;;;;;;1.54;100.00;33912.47;5094387;28;20208;-63
2024/01/08 10:08:57;;;;;;;6.03;5.73;;;;;;;1.47;100.00;32318.13;5093235;28;20195;-63
2024/01/08 10:11:26;;;;;;;6.67;6.37;;;;;;;1.59;100.00;32324.84;5092439;28;20592;-62
2024/01/08 10:13:53;;;;;;;5.90;5.60;;;;;;;1.65;100.00;31692.63;5092615;28;20639;-60
2024/01/08 10:16:20;;;;;;;7.13;6.43;;;;;;;1.54;100.00;32958.22;5094974;28;20600;-64
2024/01/08 10:18:48;;;;;;;6.37;5.97;;;;;;;1.68;100.00;29786.69;5092883;28;20613;-63
2024/01/08 10:21:17;;;;;;;6.33;6.03;;;;;;;1.74;100.00;30425.66;5093142;28;20277;-64
2024/01/08 10:23:46;;;;;;;5.90;5.60;;;;;;;1.76;100.00;31698.63;5093014;28;20184;-64
2024/01/08 10:26:17;;;;;;;5.57;5.27;;;;;;;1.76;100.00;34244.13;5094696;28;20634;-64
2024/01/08 10:28:46;;;;;;;5.67;5.37;;;;;;;1.72;100.00;34559.63;5092396;28;20627;-62
2024/01/08 10:31:14;;;;;;;6.50;6.10;;;;;;;1.63;100.00;34235.84;5091775;28;20184;-62
2024/01/08 10:33:41;;;;;;;5.30;5.00;;;;;;;1.70;100.00;33921.91;5090859;28;20237;-62
2024/01/08 10:36:09;;;;;;;5.60;5.20;;;;;;;1.72;100.00;32014.66;5091455;28;20238;-64
2024/01/08 10:38:37;;;;;;;5.17;4.93;;;;;;;1.74;100.00;34242.59;5091701;28;20646;-63
2024/01/08 10:41:04;;;;;;;5.77;5.47;;;;;;;1.68;100.00;36148.84;5091583;28;20264;-63
2024/01/08 10:43:33;;;;;;;6.47;6.17;;;;;;;1.62;100.00;40286.78;5092141;28;20236;-62
2024/01/08 10:46:02;;;;;;;6.83;6.43;;;;;;;1.54;100.00;40599.81;5092194;28;20221;-62
2024/01/08 10:48:39;;;;;;;7.60;7.10;;;;;;;1.34;100.00;36763.72;5091778;28;20215;-62
2024/01/08 10:51:08;;;;;;;7.43;6.97;;;;;;;1.50;100.00;35818.91;5091980;28;20248;-63
2024/01/08 10:53:42;;;;;;;7.77;7.17;;;;;;;1.33;100.00;38673.66;5091574;28;20287;-64
2024/01/08 10:56:12;;;;;;;7.17;6.77;;;;;;;1.23;100.00;43446.44;5092034;28;20279;-62
2024/01/08 10:58:49;;;;;;;8.00;7.37;;;;;;;1.21;100.00;41851.00;5091560;28;20200;-64
2024/01/08 11:01:17;;;;;;;7.30;6.80;;;;;;;1.29;100.00;39626.41;5092000;28;20188;-63
2024/01/08 11:03:46;;;;;;;7.83;7.23;;;;;;;1.37;100.00;37402.69;5092848;28;20184;-62
2024/01/08 11:06:14;;;;;;;7.83;7.33;;;;;;;1.31;100.00;39627.81;5091742;28;20558;-64
2024/01/08 11:08:42;;;;;;;8.73;8.13;;;;;;;1.17;100.00;41848.03;5091549;28;20253;-64
2024/01/08 11:11:10;;;;;;;8.13;7.40;;;;;;;0.96;100.00;45338.63;5091281;28;20192;-62
2024/01/08 11:13:41;;;;;;;8.40;7.80;;;;;;;0.80;100.00;48196.50;5091213;28;20187;-62
2024/01/08 11:16:09;;;;;;;8.80;8.20;;;;;;;0.79;100.00;44687.47;5091339;28;20190;-62
2024/01/08 11:18:38;;;;;;;9.00;8.33;;;;;;;0.90;100.00;42465.53;5091216;28;20269;-62
2024/01/08 11:21:07;;;;;;;8.23;7.83;;;;;;;0.83;100.00;41822.81;5091289;28;20189;-64
2024/01/08 11:23:40;;;;;;;7.13;6.73;;;;;;;0.78;100.00;44049.22;5092683;28;20596;-62
2024/01/08 11:26:10;;;;;;;8.27;7.67;;;;;;;0.68;100.00;50420.28;5091973;28;20203;-63
2024/01/08 11:28:39;;;;;;;9.13;8.53;;;;;;;0.72;100.00;51062.41;5091752;28;20695;-64
2024/01/08 11:31:47;;;;;;;8.80;8.37;;;;;;;0.61;100.00;58403.66;5091889;28;20188;-64
2024/01/08 11:34:56;;;;;;;118.90;74.97;;;;;;;0.60;100.00;61283.97;5042179;28;20196;-60
2024/01/08 11:37:34;;;;;;;60.27;39.37;;;;;;;0.74;100.00;65785.53;5091360;28;20208;-59